createdAt,value
2019-01-31T00:00:32.833Z,0.00
2019-01-31T00:01:32.820Z,0.00
2019-01-31T00:02:32.810Z,0.00
2019-01-31T00:03:32.804Z,0.00
2019-01-31T00:04:32.791Z,0.00
2019-01-31T00:05:32.852Z,0.00
2019-01-31T00:06:32.769Z,0.00
2019-01-31T00:07:32.795Z,0.00
2019-01-31T00:08:32.862Z,0.00
2019-01-31T00:09:32.740Z,0.00
2019-01-31T00:10:32.730Z,0.00
2019-01-31T00:11:32.720Z,0.00
2019-01-31T00:12:32.729Z,0.00
2019-01-31T00:13:32.701Z,0.00
2019-01-31T00:14:32.690Z,0.00
2019-01-31T00:15:32.683Z,0.00
2019-01-31T00:16:32.669Z,0.00
2019-01-31T00:17:32.660Z,0.00
2019-01-31T00:18:32.671Z,0.00
2019-01-31T00:19:32.641Z,0.00
2019-01-31T00:20:32.632Z,0.00
2019-01-31T00:21:32.621Z,0.00
2019-01-31T00:22:32.610Z,0.00
2019-01-31T00:23:32.604Z,0.00
2019-01-31T00:24:32.594Z,0.00
2019-01-31T00:25:32.578Z,0.00
2019-01-31T00:26:32.571Z,0.00
2019-01-31T00:27:32.564Z,0.00
2019-01-31T00:28:32.549Z,0.00
2019-01-31T00:29:32.547Z,0.00
2019-01-31T00:30:32.555Z,0.00
2019-01-31T00:31:32.519Z,0.00
2019-01-31T00:32:32.512Z,0.00
2019-01-31T00:33:32.499Z,0.00
2019-01-31T00:34:32.493Z,0.00
2019-01-31T00:35:32.478Z,0.00
2019-01-31T00:36:32.486Z,0.00
2019-01-31T00:37:32.456Z,0.00
2019-01-31T00:38:32.448Z,0.00
2019-01-31T00:39:32.440Z,0.00
2019-01-31T00:40:32.429Z,0.00
2019-01-31T00:41:32.417Z,0.00
2019-01-31T00:42:32.409Z,0.00
2019-01-31T00:43:32.398Z,0.00
2019-01-31T00:44:32.387Z,0.00
2019-01-31T00:45:32.380Z,0.00
2019-01-31T00:46:32.368Z,0.00
2019-01-31T00:47:32.357Z,0.00
2019-01-31T00:48:32.352Z,0.00
2019-01-31T00:49:32.369Z,0.00
2019-01-31T00:50:32.325Z,0.00
2019-01-31T00:51:32.316Z,0.00
2019-01-31T00:52:32.306Z,0.00
2019-01-31T00:53:32.317Z,0.00
2019-01-31T00:54:32.304Z,0.00
2019-01-31T00:55:32.277Z,0.00
2019-01-31T00:56:32.265Z,0.00
2019-01-31T00:57:32.267Z,0.00
2019-01-31T00:58:32.247Z,0.00
2019-01-31T00:59:32.234Z,0.00
2019-01-31T01:00:32.223Z,0.00
2019-01-31T01:01:32.212Z,0.00
2019-01-31T01:02:32.204Z,0.00
2019-01-31T01:03:32.194Z,0.00
2019-01-31T01:04:32.182Z,0.00
2019-01-31T01:05:32.197Z,0.00
2019-01-31T01:06:32.173Z,0.00
2019-01-31T01:07:32.151Z,0.00
2019-01-31T01:08:32.143Z,0.00
2019-01-31T01:09:32.132Z,0.00
2019-01-31T01:10:32.124Z,0.00
2019-01-31T01:11:32.108Z,0.00
2019-01-31T01:12:32.096Z,0.00
2019-01-31T01:13:32.196Z,0.00
2019-01-31T01:14:32.077Z,0.00
2019-01-31T01:15:32.077Z,0.00
2019-01-31T01:16:32.069Z,0.00
2019-01-31T01:17:32.046Z,0.00
2019-01-31T01:18:32.034Z,0.00
2019-01-31T01:19:32.025Z,0.00
2019-01-31T01:20:32.013Z,0.00
2019-01-31T01:21:32.006Z,0.00
2019-01-31T01:22:31.997Z,0.00
2019-01-31T01:23:31.983Z,0.00
2019-01-31T01:24:31.974Z,0.00
2019-01-31T01:25:31.961Z,0.00
2019-01-31T01:26:31.955Z,0.00
2019-01-31T01:27:31.943Z,0.00
2019-01-31T01:28:31.933Z,0.00
2019-01-31T01:29:31.934Z,0.00
2019-01-31T01:30:31.911Z,0.00
2019-01-31T01:31:31.898Z,0.00
2019-01-31T01:32:31.891Z,0.00
2019-01-31T01:33:31.902Z,0.00
2019-01-31T01:34:31.868Z,0.00
2019-01-31T01:35:31.860Z,0.00
2019-01-31T01:36:31.848Z,0.00
2019-01-31T01:37:31.837Z,0.00
2019-01-31T01:38:31.825Z,0.00
2019-01-31T01:39:31.817Z,0.00
2019-01-31T01:40:31.805Z,0.00
2019-01-31T01:41:31.794Z,0.00
2019-01-31T01:42:31.785Z,0.00
2019-01-31T01:43:31.802Z,0.00
2019-01-31T01:44:31.762Z,0.00
2019-01-31T01:45:31.753Z,0.00
2019-01-31T01:46:31.741Z,0.00
2019-01-31T01:47:31.732Z,0.00
2019-01-31T01:48:31.731Z,0.00
2019-01-31T01:49:31.711Z,0.00
2019-01-31T01:50:31.722Z,0.00
2019-01-31T01:51:31.691Z,0.00
2019-01-31T01:52:31.783Z,0.00
2019-01-31T01:53:31.668Z,0.00
2019-01-31T01:54:31.658Z,0.00
2019-01-31T01:55:31.647Z,0.00
2019-01-31T01:56:31.634Z,0.00
2019-01-31T01:57:31.624Z,0.00
2019-01-31T01:58:31.619Z,0.00
2019-01-31T01:59:31.603Z,0.00
2019-01-31T02:00:31.593Z,0.00
2019-01-31T02:01:31.604Z,0.00
2019-01-31T02:02:31.571Z,0.00
2019-01-31T02:03:31.565Z,0.00
2019-01-31T02:04:31.550Z,0.00
2019-01-31T02:05:31.541Z,0.00
2019-01-31T02:06:31.529Z,0.00
2019-01-31T02:07:31.524Z,0.00
2019-01-31T02:08:31.508Z,0.00
2019-01-31T02:09:31.498Z,0.00
2019-01-31T02:10:31.487Z,0.00
2019-01-31T02:11:31.476Z,0.00
2019-01-31T02:12:31.477Z,0.00
2019-01-31T02:13:31.454Z,0.00
2019-01-31T02:14:31.445Z,0.00
2019-01-31T02:15:31.433Z,0.00
2019-01-31T02:16:31.442Z,0.00
2019-01-31T02:17:31.414Z,0.00
2019-01-31T02:18:31.403Z,0.00
2019-01-31T02:19:31.400Z,0.00
2019-01-31T02:20:31.393Z,0.00
2019-01-31T02:21:31.369Z,0.00
2019-01-31T02:22:31.360Z,0.00
2019-01-31T02:23:31.346Z,0.00
2019-01-31T02:24:31.340Z,0.00
2019-01-31T02:25:31.327Z,0.00
2019-01-31T02:26:31.319Z,0.00
2019-01-31T02:27:31.306Z,0.00
2019-01-31T02:28:31.294Z,0.00
2019-01-31T02:29:31.286Z,0.00
2019-01-31T02:30:31.276Z,0.00
2019-01-31T02:31:31.263Z,0.00
2019-01-31T02:32:31.254Z,0.00
2019-01-31T02:33:31.242Z,0.00
2019-01-31T02:34:31.236Z,0.00
2019-01-31T02:35:31.218Z,0.00
2019-01-31T02:36:31.211Z,0.00
2019-01-31T02:37:31.201Z,0.00
2019-01-31T02:38:31.195Z,0.00
2019-01-31T02:39:42.395Z,0.00
2019-01-31T02:40:31.166Z,0.00
2019-01-31T02:41:31.157Z,0.00
2019-01-31T02:42:31.145Z,0.00
2019-01-31T02:43:31.138Z,0.00
2019-01-31T02:44:31.126Z,0.00
2019-01-31T02:45:31.117Z,0.00
2019-01-31T02:46:31.111Z,0.00
2019-01-31T02:47:31.117Z,0.00
2019-01-31T02:48:31.091Z,0.00
2019-01-31T02:49:31.230Z,0.00
2019-01-31T02:50:31.062Z,0.00
2019-01-31T02:51:31.050Z,0.00
2019-01-31T02:52:31.068Z,0.00
2019-01-31T02:53:31.029Z,0.00
2019-01-31T02:54:31.017Z,0.00
2019-01-31T02:55:31.007Z,0.00
2019-01-31T02:56:31.006Z,0.00
2019-01-31T02:57:30.984Z,0.00
2019-01-31T02:58:30.975Z,0.00
2019-01-31T02:59:30.964Z,0.00
2019-01-31T03:00:30.956Z,0.00
2019-01-31T03:01:30.943Z,0.00
2019-01-31T03:02:30.933Z,0.00
2019-01-31T03:03:30.924Z,0.00
2019-01-31T03:04:30.909Z,0.00
2019-01-31T03:05:30.901Z,0.00
2019-01-31T03:06:30.892Z,0.00
2019-01-31T03:07:30.879Z,0.00
2019-01-31T03:08:30.884Z,0.00
2019-01-31T03:09:30.857Z,0.00
2019-01-31T03:10:30.853Z,0.00
2019-01-31T03:11:30.834Z,0.00
2019-01-31T03:12:30.822Z,0.00
2019-01-31T03:13:30.812Z,0.00
2019-01-31T03:14:30.806Z,0.00
2019-01-31T03:15:30.794Z,0.00
2019-01-31T03:16:30.779Z,0.00
2019-01-31T03:17:30.772Z,0.00
2019-01-31T03:18:30.760Z,0.00
2019-01-31T03:19:30.747Z,0.00
2019-01-31T03:20:30.735Z,0.00
2019-01-31T03:21:30.725Z,0.00
2019-01-31T03:22:30.720Z,0.00
2019-01-31T03:23:30.703Z,0.00
2019-01-31T03:24:30.693Z,0.00
2019-01-31T03:25:30.685Z,0.00
2019-01-31T03:26:30.674Z,0.00
2019-01-31T03:27:30.660Z,0.00
2019-01-31T03:28:30.649Z,0.00
2019-01-31T03:29:30.637Z,0.00
2019-01-31T03:30:30.628Z,0.00
2019-01-31T03:31:30.616Z,0.00
2019-01-31T03:32:30.605Z,0.00
2019-01-31T03:33:30.592Z,0.00
2019-01-31T03:34:30.585Z,0.00
2019-01-31T03:35:30.573Z,0.00
2019-01-31T03:36:30.560Z,0.00
2019-01-31T03:37:30.550Z,0.00
2019-01-31T03:38:30.539Z,0.00
2019-01-31T03:39:30.528Z,0.00
2019-01-31T03:40:30.516Z,0.00
2019-01-31T03:41:30.508Z,0.00
2019-01-31T03:42:30.498Z,0.00
2019-01-31T03:43:30.485Z,0.00
2019-01-31T03:44:30.475Z,0.00
2019-01-31T03:45:30.460Z,0.00
2019-01-31T03:46:30.451Z,0.00
2019-01-31T03:47:30.441Z,0.00
2019-01-31T03:48:30.428Z,0.00
2019-01-31T03:49:30.416Z,0.00
2019-01-31T03:50:30.405Z,0.00
2019-01-31T03:51:30.397Z,0.00
2019-01-31T03:52:30.404Z,0.00
2019-01-31T03:53:30.371Z,0.00
2019-01-31T03:54:30.363Z,0.00
2019-01-31T03:55:30.350Z,0.00
2019-01-31T03:56:30.339Z,0.00
2019-01-31T03:57:30.327Z,0.00
2019-01-31T03:58:30.317Z,0.00
2019-01-31T03:59:30.305Z,0.00
2019-01-31T04:00:30.297Z,0.00
2019-01-31T04:01:30.285Z,0.00
2019-01-31T04:02:30.270Z,0.00
2019-01-31T04:03:32.529Z,0.00
2019-01-31T04:04:30.249Z,0.00
2019-01-31T04:05:30.258Z,0.00
2019-01-31T04:06:30.228Z,0.00
2019-01-31T04:07:30.217Z,0.00
2019-01-31T04:08:30.229Z,0.00
2019-01-31T04:09:30.195Z,0.00
2019-01-31T04:10:30.189Z,0.00
2019-01-31T04:11:30.173Z,0.00
2019-01-31T04:12:30.173Z,0.00
2019-01-31T04:13:30.150Z,0.00
2019-01-31T04:14:30.143Z,0.00
2019-01-31T04:15:30.128Z,0.00
2019-01-31T04:16:30.115Z,0.00
2019-01-31T04:17:30.107Z,0.00
2019-01-31T04:18:30.095Z,0.00
2019-01-31T04:19:30.084Z,0.00
2019-01-31T04:20:30.081Z,0.00
2019-01-31T04:21:30.064Z,0.00
2019-01-31T04:22:30.060Z,0.00
2019-01-31T04:23:30.039Z,0.00
2019-01-31T04:24:30.029Z,0.00
2019-01-31T04:25:30.015Z,0.00
2019-01-31T04:26:30.029Z,0.00
2019-01-31T04:27:29.996Z,0.00
2019-01-31T04:28:30.784Z,0.00
2019-01-31T04:29:29.974Z,0.00
2019-01-31T04:30:29.961Z,0.00
2019-01-31T04:31:29.968Z,0.00
2019-01-31T04:32:29.940Z,0.00
2019-01-31T04:33:29.928Z,0.00
2019-01-31T04:34:29.923Z,0.00
2019-01-31T04:35:29.937Z,0.00
2019-01-31T04:36:29.923Z,0.00
2019-01-31T04:37:29.885Z,0.00
2019-01-31T04:38:29.877Z,0.00
2019-01-31T04:39:29.863Z,0.00
2019-01-31T04:40:31.519Z,0.00
2019-01-31T04:41:29.838Z,0.00
2019-01-31T04:42:29.842Z,0.00
2019-01-31T04:43:29.818Z,0.00
2019-01-31T04:44:29.806Z,0.00
2019-01-31T04:45:29.792Z,0.00
2019-01-31T04:46:29.809Z,0.00
2019-01-31T04:47:29.771Z,0.00
2019-01-31T04:48:29.766Z,0.00
2019-01-31T04:49:29.752Z,0.00
2019-01-31T04:50:29.744Z,0.00
2019-01-31T04:51:29.725Z,0.00
2019-01-31T04:52:29.712Z,0.00
2019-01-31T04:53:29.703Z,0.00
2019-01-31T04:54:29.692Z,0.00
2019-01-31T04:55:29.680Z,0.00
2019-01-31T04:56:29.669Z,0.00
2019-01-31T04:57:29.661Z,0.00
2019-01-31T04:58:29.648Z,0.00
2019-01-31T04:59:29.635Z,0.00
2019-01-31T05:00:29.630Z,0.00
2019-01-31T05:01:29.618Z,0.00
2019-01-31T05:02:29.602Z,0.00
2019-01-31T05:03:29.598Z,0.00
2019-01-31T05:04:29.573Z,0.00
2019-01-31T05:05:29.633Z,0.00
2019-01-31T05:06:29.552Z,0.00
2019-01-31T05:07:29.538Z,0.00
2019-01-31T05:08:30.982Z,0.00
2019-01-31T05:09:29.517Z,0.00
2019-01-31T05:10:29.503Z,0.00
2019-01-31T05:11:29.521Z,0.00
2019-01-31T05:12:29.487Z,0.00
2019-01-31T05:13:29.469Z,0.00
2019-01-31T05:14:29.457Z,0.00
2019-01-31T05:15:29.470Z,0.00
2019-01-31T05:16:29.443Z,0.00
2019-01-31T05:17:29.425Z,0.00
2019-01-31T05:18:29.412Z,0.00
2019-01-31T05:19:29.404Z,0.00
2019-01-31T05:20:29.393Z,0.00
2019-01-31T05:21:29.376Z,0.00
2019-01-31T05:22:29.366Z,0.00
2019-01-31T05:23:29.361Z,0.00
2019-01-31T05:24:36.817Z,0.00
2019-01-31T05:26:22.818Z,0.00
2019-01-31T05:27:22.707Z,0.00
2019-01-31T05:29:16.115Z,0.00
2019-01-31T05:30:16.106Z,0.00
2019-01-31T05:32:09.017Z,0.00
2019-01-31T05:33:08.909Z,0.00
2019-01-31T05:35:01.809Z,0.00
2019-01-31T05:36:01.836Z,0.00
2019-01-31T05:37:55.211Z,0.00
2019-01-31T05:38:55.083Z,0.00
2019-01-31T05:40:55.190Z,0.00
2019-01-31T05:41:47.890Z,0.00
2019-01-31T05:43:40.836Z,0.00
2019-01-31T05:44:40.737Z,0.00
2019-01-31T05:46:34.170Z,0.00
2019-01-31T05:47:34.168Z,0.00
2019-01-31T05:48:34.129Z,0.00
2019-01-31T05:49:34.399Z,0.00
2019-01-31T05:50:34.045Z,0.00
2019-01-31T05:51:34.034Z,0.00
2019-01-31T05:52:34.022Z,0.00
2019-01-31T05:53:34.009Z,0.00
2019-01-31T05:54:33.999Z,0.00
2019-01-31T05:55:33.990Z,0.00
2019-01-31T05:56:33.976Z,0.00
2019-01-31T05:57:33.963Z,0.00
2019-01-31T05:58:33.971Z,0.00
2019-01-31T05:59:33.943Z,0.00
2019-01-31T06:00:33.929Z,0.00
2019-01-31T06:01:33.949Z,0.00
2019-01-31T06:02:33.902Z,0.00
2019-01-31T06:03:33.901Z,0.00
2019-01-31T06:04:33.881Z,0.00
2019-01-31T06:05:33.866Z,0.00
2019-01-31T06:06:33.859Z,0.00
2019-01-31T06:07:33.870Z,0.00
2019-01-31T06:08:33.853Z,0.00
2019-01-31T06:09:33.819Z,0.00
2019-01-31T06:10:33.855Z,0.00
2019-01-31T06:11:33.802Z,0.00
2019-01-31T06:12:33.814Z,0.00
2019-01-31T06:13:33.777Z,0.00
2019-01-31T06:14:33.765Z,0.00
2019-01-31T06:15:33.749Z,0.00
2019-01-31T06:16:33.769Z,0.00
2019-01-31T06:17:33.729Z,0.00
2019-01-31T06:18:33.717Z,0.00
2019-01-31T06:19:33.705Z,0.00
2019-01-31T06:20:33.702Z,0.00
2019-01-31T06:21:33.708Z,0.00
2019-01-31T06:22:33.670Z,4.00
2019-01-31T06:23:33.683Z,4.00
2019-01-31T06:24:33.677Z,4.00
2019-01-31T06:25:33.635Z,0.00
2019-01-31T06:26:33.620Z,4.00
2019-01-31T06:27:33.609Z,4.00
2019-01-31T06:28:33.599Z,4.00
2019-01-31T06:29:33.583Z,4.00
2019-01-31T06:30:33.594Z,4.00
2019-01-31T06:31:33.562Z,4.00
2019-01-31T06:32:33.576Z,8.00
2019-01-31T06:33:33.535Z,8.00
2019-01-31T06:34:33.527Z,12.00
2019-01-31T06:35:33.513Z,12.00
2019-01-31T06:36:33.500Z,16.00
2019-01-31T06:37:33.487Z,20.00
2019-01-31T06:38:33.478Z,20.00
2019-01-31T06:39:33.476Z,24.00
2019-01-31T06:40:33.455Z,28.00
2019-01-31T06:41:33.440Z,32.00
2019-01-31T06:42:33.431Z,36.00
2019-01-31T06:43:33.417Z,40.00
2019-01-31T06:44:33.403Z,48.00
2019-01-31T06:45:33.391Z,52.00
2019-01-31T06:46:33.386Z,60.00
2019-01-31T06:47:33.377Z,68.00
2019-01-31T06:48:34.101Z,76.00
2019-01-31T06:49:33.344Z,80.00
2019-01-31T06:50:33.332Z,92.00
2019-01-31T06:51:33.320Z,100.00
2019-01-31T06:52:33.310Z,112.00
2019-01-31T06:53:33.295Z,124.00
2019-01-31T06:54:33.291Z,136.00
2019-01-31T06:55:33.274Z,148.00
2019-01-31T06:56:33.259Z,156.00
2019-01-31T06:57:33.248Z,176.00
2019-01-31T06:58:33.236Z,188.00
2019-01-31T06:59:33.222Z,200.00
2019-01-31T07:00:33.210Z,220.00
2019-01-31T07:01:33.199Z,232.00
2019-01-31T07:02:33.205Z,248.00
2019-01-31T07:03:33.176Z,268.00
2019-01-31T07:04:33.165Z,284.00
2019-01-31T07:05:33.151Z,304.00
2019-01-31T07:06:33.137Z,328.00
2019-01-31T07:07:33.129Z,348.00
2019-01-31T07:08:33.111Z,368.00
2019-01-31T07:09:33.101Z,388.00
2019-01-31T07:10:33.087Z,404.00
2019-01-31T07:11:34.853Z,420.00
2019-01-31T07:12:33.062Z,440.00
2019-01-31T07:13:33.936Z,456.00
2019-01-31T07:14:33.037Z,472.00
2019-01-31T07:15:33.026Z,496.00
2019-01-31T07:16:33.012Z,508.00
2019-01-31T07:17:32.999Z,512.00
2019-01-31T07:18:32.992Z,540.00
2019-01-31T07:19:32.977Z,584.00
2019-01-31T07:20:32.964Z,604.00
2019-01-31T07:21:32.966Z,620.00
2019-01-31T07:22:32.936Z,644.00
2019-01-31T07:23:32.926Z,652.00
2019-01-31T07:24:32.912Z,672.00
2019-01-31T07:25:32.898Z,696.00
2019-01-31T07:26:32.889Z,732.00
2019-01-31T07:27:32.885Z,764.00
2019-01-31T07:28:32.862Z,784.00
2019-01-31T07:29:32.920Z,800.00
2019-01-31T07:30:32.843Z,824.00
2019-01-31T07:31:32.824Z,840.00
2019-01-31T07:32:32.828Z,872.00
2019-01-31T07:33:32.823Z,884.00
2019-01-31T07:34:32.811Z,888.00
2019-01-31T07:35:32.775Z,900.00
2019-01-31T07:36:32.762Z,908.00
2019-01-31T07:37:32.750Z,928.00
2019-01-31T07:38:32.740Z,964.00
2019-01-31T07:39:32.731Z,1008.00
2019-01-31T07:40:32.728Z,1052.00
2019-01-31T07:41:40.870Z,1056.00
2019-01-31T07:42:32.688Z,1104.00
2019-01-31T07:43:32.675Z,1144.00
2019-01-31T07:44:32.665Z,1120.00
2019-01-31T07:45:32.650Z,1160.00
2019-01-31T07:46:32.638Z,1152.00
2019-01-31T07:47:32.625Z,1180.00
2019-01-31T07:48:32.616Z,1204.00
2019-01-31T07:49:32.598Z,1228.00
2019-01-31T07:50:32.585Z,1244.00
2019-01-31T07:51:32.575Z,1252.00
2019-01-31T07:52:32.561Z,1256.00
2019-01-31T07:53:32.550Z,1268.00
2019-01-31T07:54:32.536Z,1280.00
2019-01-31T07:55:32.554Z,1304.00
2019-01-31T07:56:32.512Z,1316.00
2019-01-31T07:57:32.497Z,1336.00
2019-01-31T07:58:32.486Z,1360.00
2019-01-31T07:59:32.474Z,1384.00
2019-01-31T08:00:32.462Z,1420.00
2019-01-31T08:01:32.449Z,1452.00
2019-01-31T08:02:32.435Z,1484.00
2019-01-31T08:03:32.426Z,1476.00
2019-01-31T08:04:32.423Z,1492.00
2019-01-31T08:05:32.403Z,1512.00
2019-01-31T08:06:32.396Z,1520.00
2019-01-31T08:07:32.376Z,1492.00
2019-01-31T08:08:32.361Z,1460.00
2019-01-31T08:09:32.352Z,1460.00
2019-01-31T08:10:32.338Z,1492.00
2019-01-31T08:11:32.328Z,1580.00
2019-01-31T08:12:34.564Z,1648.00
2019-01-31T08:13:32.302Z,1772.00
2019-01-31T08:14:32.290Z,1780.00
2019-01-31T08:15:32.286Z,1740.00
2019-01-31T08:16:32.267Z,1676.00
2019-01-31T08:17:32.252Z,1692.00
2019-01-31T08:18:32.242Z,1712.00
2019-01-31T08:19:32.230Z,1684.00
2019-01-31T08:20:32.215Z,1712.00
2019-01-31T08:21:32.211Z,1772.00
2019-01-31T08:22:32.194Z,1900.00
2019-01-31T08:23:32.183Z,1976.00
2019-01-31T08:24:32.169Z,2044.00
2019-01-31T08:25:32.161Z,2096.00
2019-01-31T08:26:32.146Z,2152.00
2019-01-31T08:27:32.173Z,2216.00
2019-01-31T08:28:32.121Z,2324.00
2019-01-31T08:29:32.110Z,2380.00
2019-01-31T08:30:32.101Z,2424.00
2019-01-31T08:31:32.095Z,2496.00
2019-01-31T08:32:32.076Z,2588.00
2019-01-31T08:33:32.068Z,2588.00
2019-01-31T08:34:32.051Z,2528.00
2019-01-31T08:35:32.042Z,2532.00
2019-01-31T08:36:32.028Z,2516.00
2019-01-31T08:37:32.022Z,2496.00
2019-01-31T08:38:32.006Z,2496.00
2019-01-31T08:39:32.002Z,2424.00
2019-01-31T08:40:31.987Z,2400.00
2019-01-31T08:41:31.974Z,2388.00
2019-01-31T08:42:31.962Z,2384.00
2019-01-31T08:43:31.952Z,2384.00
2019-01-31T08:44:31.940Z,2428.00
2019-01-31T08:45:31.932Z,2460.00
2019-01-31T08:46:31.916Z,2532.00
2019-01-31T08:47:31.910Z,3100.00
2019-01-31T08:48:31.895Z,3028.00
2019-01-31T08:49:31.951Z,3180.00
2019-01-31T08:50:31.876Z,3936.00
2019-01-31T08:51:31.867Z,7540.00
2019-01-31T08:52:31.860Z,8364.00
2019-01-31T08:53:31.848Z,4360.00
2019-01-31T08:54:31.835Z,4660.00
2019-01-31T08:55:31.823Z,5204.00
2019-01-31T08:56:31.814Z,5852.00
2019-01-31T08:57:31.804Z,7012.00
2019-01-31T08:58:31.804Z,7344.00
2019-01-31T08:59:31.786Z,7172.00
2019-01-31T09:00:31.779Z,7280.00
2019-01-31T09:01:31.769Z,9660.00
2019-01-31T09:02:31.763Z,11372.00
2019-01-31T09:03:31.802Z,11764.00
2019-01-31T09:04:31.763Z,9876.00
2019-01-31T09:05:31.742Z,10528.00
2019-01-31T09:06:31.734Z,17088.00
2019-01-31T09:07:31.747Z,17056.00
2019-01-31T09:08:31.721Z,12588.00
2019-01-31T09:09:31.720Z,11848.00
2019-01-31T09:10:31.768Z,23296.00
2019-01-31T09:11:31.709Z,27904.00
2019-01-31T09:12:31.707Z,23968.00
2019-01-31T09:13:31.700Z,18528.00
2019-01-31T09:14:31.698Z,18656.00
2019-01-31T09:15:31.693Z,35392.00
2019-01-31T09:16:31.690Z,44320.00
2019-01-31T09:17:31.685Z,41216.00
2019-01-31T09:18:31.686Z,43264.00
2019-01-31T09:19:31.719Z,49184.00
2019-01-31T09:20:31.680Z,36480.00
2019-01-31T09:21:31.696Z,33280.00
2019-01-31T09:22:31.685Z,39552.00
2019-01-31T09:23:31.675Z,50752.00
2019-01-31T09:24:31.676Z,53536.00
2019-01-31T09:25:31.674Z,55072.00
2019-01-31T09:26:31.744Z,51232.00
2019-01-31T09:27:31.690Z,56544.00
2019-01-31T09:28:31.671Z,60352.00
2019-01-31T09:29:31.672Z,53408.00
2019-01-31T09:30:31.672Z,28640.00
2019-01-31T09:31:31.674Z,11108.00
2019-01-31T09:32:31.674Z,16800.00
2019-01-31T09:33:31.697Z,36544.00
2019-01-31T09:34:31.683Z,43648.00
2019-01-31T09:35:31.681Z,50144.00
2019-01-31T09:36:31.682Z,54656.00
2019-01-31T09:37:31.686Z,30112.00
2019-01-31T09:38:31.686Z,11580.00
2019-01-31T09:39:31.690Z,16832.00
2019-01-31T09:40:31.692Z,30240.00
2019-01-31T09:41:31.693Z,51200.00
2019-01-31T09:42:31.694Z,63872.00
2019-01-31T09:43:31.698Z,64384.00
2019-01-31T09:44:31.703Z,65472.00
2019-01-31T09:45:31.741Z,66304.00
2019-01-31T09:46:31.710Z,67936.00
2019-01-31T09:47:31.927Z,62656.00
2019-01-31T09:48:31.716Z,49920.00
2019-01-31T09:49:31.721Z,53120.00
2019-01-31T09:50:31.726Z,65856.00
2019-01-31T09:51:31.733Z,68352.00
2019-01-31T09:52:31.756Z,70144.00
2019-01-31T09:53:31.743Z,71424.00
2019-01-31T09:54:31.756Z,70944.00
2019-01-31T09:55:31.766Z,66368.00
2019-01-31T09:56:34.623Z,63392.00
2019-01-31T09:57:31.764Z,58496.00
2019-01-31T09:58:31.773Z,70592.00
2019-01-31T09:59:31.778Z,71584.00
2019-01-31T10:00:31.782Z,69792.00
2019-01-31T10:01:31.789Z,69056.00
2019-01-31T10:02:31.796Z,69984.00
2019-01-31T10:03:34.615Z,70080.00
2019-01-31T10:04:31.820Z,70272.00
2019-01-31T10:05:31.818Z,70464.00
2019-01-31T10:06:31.825Z,70464.00
2019-01-31T10:07:31.832Z,70240.00
2019-01-31T10:08:31.841Z,69600.00
2019-01-31T10:09:31.871Z,70016.00
2019-01-31T10:10:31.853Z,70464.00
2019-01-31T10:11:31.969Z,71040.00
2019-01-31T10:12:38.391Z,69600.00
2019-01-31T10:13:31.948Z,68928.00
2019-01-31T10:14:31.885Z,70176.00
2019-01-31T10:15:31.905Z,72928.00
2019-01-31T10:16:31.955Z,74048.00
2019-01-31T10:17:31.975Z,72960.00
2019-01-31T10:18:31.982Z,72096.00
2019-01-31T10:19:31.991Z,70272.00
2019-01-31T10:20:31.972Z,70176.00
2019-01-31T10:21:31.938Z,71648.00
2019-01-31T10:22:32.025Z,73152.00
2019-01-31T10:23:32.006Z,73504.00
2019-01-31T10:24:31.964Z,73184.00
2019-01-31T10:25:32.015Z,73760.00
2019-01-31T10:26:31.982Z,71552.00
2019-01-31T10:27:31.989Z,72000.00
2019-01-31T10:28:31.994Z,73728.00
2019-01-31T10:29:32.001Z,74112.00
2019-01-31T10:30:32.012Z,73344.00
2019-01-31T10:31:32.027Z,74848.00
2019-01-31T10:32:32.032Z,75104.00
2019-01-31T10:33:32.033Z,74944.00
2019-01-31T10:34:32.062Z,74720.00
2019-01-31T10:35:32.054Z,75360.00
2019-01-31T10:36:32.057Z,75872.00
2019-01-31T10:37:32.064Z,75168.00
2019-01-31T10:38:32.072Z,74656.00
2019-01-31T10:39:32.080Z,73632.00
2019-01-31T10:40:32.086Z,73408.00
2019-01-31T10:41:32.092Z,73984.00
2019-01-31T10:42:32.104Z,75360.00
2019-01-31T10:43:32.106Z,75808.00
2019-01-31T10:44:32.128Z,73504.00
2019-01-31T10:45:32.127Z,72768.00
2019-01-31T10:46:32.129Z,73664.00
2019-01-31T10:47:32.142Z,74624.00
2019-01-31T10:48:32.146Z,75808.00
2019-01-31T10:49:32.155Z,76704.00
2019-01-31T10:50:32.164Z,76288.00
2019-01-31T10:51:32.171Z,75072.00
2019-01-31T10:52:32.176Z,73792.00
2019-01-31T10:53:32.183Z,74176.00
2019-01-31T10:54:32.295Z,73664.00
2019-01-31T10:55:32.208Z,73248.00
2019-01-31T10:56:32.205Z,62304.00
2019-01-31T10:57:32.212Z,29216.00
2019-01-31T10:58:32.219Z,6316.00
2019-01-31T10:59:32.225Z,4872.00
2019-01-31T11:00:32.233Z,4308.00
2019-01-31T11:01:32.232Z,4096.00
2019-01-31T11:02:32.234Z,4044.00
2019-01-31T11:03:32.260Z,4032.00
2019-01-31T11:04:32.243Z,4016.00
2019-01-31T11:05:32.270Z,4000.00
2019-01-31T11:06:32.274Z,3980.00
2019-01-31T11:07:32.252Z,3968.00
2019-01-31T11:08:39.671Z,3956.00
2019-01-31T11:10:25.743Z,3928.00
2019-01-31T11:11:25.663Z,3916.00
2019-01-31T11:13:19.214Z,3884.00
2019-01-31T11:14:19.113Z,3860.00
2019-01-31T11:16:12.641Z,3820.00
2019-01-31T11:17:12.463Z,3800.00
2019-01-31T11:19:12.047Z,3756.00
2019-01-31T11:20:05.349Z,3736.00
2019-01-31T11:21:05.338Z,3724.00
2019-01-31T11:22:05.312Z,3708.00
2019-01-31T11:23:05.329Z,3692.00
2019-01-31T11:24:05.338Z,3680.00
2019-01-31T11:25:06.852Z,3668.00
2019-01-31T11:26:05.310Z,3656.00
2019-01-31T11:27:06.858Z,3644.00
2019-01-31T11:28:05.297Z,3624.00
2019-01-31T11:29:05.296Z,3612.00
2019-01-31T11:30:05.285Z,3596.00
2019-01-31T11:31:05.283Z,3568.00
2019-01-31T11:32:05.282Z,3552.00
2019-01-31T11:33:05.279Z,3536.00
2019-01-31T11:34:05.270Z,3524.00
2019-01-31T11:35:12.522Z,3516.00
2019-01-31T11:36:58.229Z,3488.00
2019-01-31T11:37:58.339Z,3472.00
2019-01-31T11:39:52.039Z,3444.00
2019-01-31T11:40:51.980Z,3432.00
2019-01-31T11:42:44.854Z,3412.00
2019-01-31T11:43:44.836Z,3400.00
2019-01-31T11:45:38.247Z,3372.00
2019-01-31T11:46:38.208Z,3352.00
2019-01-31T11:48:31.071Z,3292.00
2019-01-31T11:49:31.078Z,3252.00
2019-01-31T11:51:24.024Z,3184.00
2019-01-31T11:52:23.954Z,3152.00
2019-01-31T11:54:18.908Z,3104.00
2019-01-31T11:55:17.311Z,3080.00
2019-01-31T11:56:24.580Z,3056.00
2019-01-31T11:58:10.787Z,3012.00
2019-01-31T11:59:10.701Z,2996.00
2019-01-31T12:01:03.726Z,2956.00
2019-01-31T12:02:03.649Z,2936.00
2019-01-31T12:03:57.021Z,2888.00
2019-01-31T12:04:57.015Z,2860.00
2019-01-31T12:06:49.934Z,2812.00
2019-01-31T12:07:49.905Z,2772.00
2019-01-31T12:09:45.646Z,2712.00
2019-01-31T12:10:52.825Z,2680.00
2019-01-31T12:12:38.485Z,2624.00
2019-01-31T12:13:38.450Z,2596.00
2019-01-31T12:15:31.986Z,2528.00
2019-01-31T12:16:31.844Z,2516.00
2019-01-31T12:18:24.701Z,2472.00
2019-01-31T12:19:24.687Z,2432.00
2019-01-31T12:21:17.608Z,2340.00
2019-01-31T12:22:17.931Z,2412.00
2019-01-31T12:23:24.838Z,2456.00
2019-01-31T12:25:10.448Z,2460.00
2019-01-31T12:26:10.417Z,2440.00
2019-01-31T12:28:03.798Z,2408.00
2019-01-31T12:29:03.783Z,2392.00
2019-01-31T12:30:56.673Z,2360.00
2019-01-31T12:31:56.635Z,2348.00
2019-01-31T12:33:50.137Z,2312.00
2019-01-31T12:34:50.032Z,2304.00
2019-01-31T12:36:42.931Z,2276.00
2019-01-31T12:37:42.899Z,2276.00
2019-01-31T12:39:35.847Z,2252.00
2019-01-31T12:40:35.847Z,2240.00
2019-01-31T12:42:28.707Z,2220.00
2019-01-31T12:43:35.256Z,2216.00
2019-01-31T12:44:28.603Z,2192.00
2019-01-31T12:45:28.582Z,2164.00
2019-01-31T12:46:28.572Z,2136.00
2019-01-31T12:47:28.563Z,2132.00
2019-01-31T12:48:28.562Z,2076.00
2019-01-31T12:49:28.550Z,2088.00
2019-01-31T12:50:28.545Z,2120.00
2019-01-31T12:51:28.556Z,2120.00
2019-01-31T12:52:28.532Z,2132.00
2019-01-31T12:53:28.526Z,2112.00
2019-01-31T12:54:28.519Z,2048.00
2019-01-31T12:55:28.511Z,2016.00
2019-01-31T12:56:28.505Z,2016.00
2019-01-31T12:57:28.497Z,2032.00
2019-01-31T12:58:33.551Z,2040.00
2019-01-31T12:59:28.483Z,2040.00
2019-01-31T13:00:28.479Z,2040.00
2019-01-31T13:01:28.470Z,2032.00
2019-01-31T13:02:28.480Z,2016.00
2019-01-31T13:03:28.459Z,2008.00
2019-01-31T13:04:28.449Z,2004.00
2019-01-31T13:05:28.455Z,2000.00
2019-01-31T13:06:28.434Z,1996.00
2019-01-31T13:07:28.428Z,2000.00
2019-01-31T13:08:28.422Z,1996.00
2019-01-31T13:09:28.603Z,1988.00
2019-01-31T13:10:28.409Z,1984.00